createdAt,value
2022-10-10T00:00:53.083Z,83.50
2022-10-10T00:01:53.107Z,84.01
2022-10-10T00:02:53.224Z,83.61
2022-10-10T00:03:53.050Z,83.70
2022-10-10T00:04:53.044Z,83.61
2022-10-10T00:05:53.029Z,83.61
2022-10-10T00:06:53.036Z,83.91
2022-10-10T00:07:53.007Z,83.91
2022-10-10T00:08:53.017Z,83.81
2022-10-10T00:09:52.986Z,84.12
2022-10-10T00:10:52.994Z,83.40
2022-10-10T00:11:52.963Z,83.91
2022-10-10T00:12:53.417Z,83.91
2022-10-10T00:13:52.941Z,84.01
2022-10-10T00:14:52.932Z,83.91
2022-10-10T00:15:52.932Z,83.81
2022-10-10T00:16:52.910Z,83.91
2022-10-10T00:17:52.898Z,83.81
2022-10-10T00:18:52.889Z,83.23
2022-10-10T00:19:52.940Z,83.61
2022-10-10T00:20:52.868Z,83.75
2022-10-10T00:21:52.864Z,83.44
2022-10-10T00:22:53.317Z,84.05
2022-10-10T00:23:52.831Z,83.64
2022-10-10T00:24:52.840Z,83.64
2022-10-10T00:25:52.812Z,83.91
2022-10-10T00:26:52.813Z,83.91
2022-10-10T00:27:52.792Z,83.81
2022-10-10T00:28:52.780Z,83.81
2022-10-10T00:29:52.768Z,83.91
2022-10-10T00:30:52.759Z,84.01
2022-10-10T00:31:52.759Z,83.70
2022-10-10T00:32:53.110Z,82.89
2022-10-10T00:33:52.724Z,83.29
2022-10-10T00:34:52.718Z,83.50
2022-10-10T00:35:52.702Z,83.40
2022-10-10T00:36:52.707Z,82.89
2022-10-10T00:37:52.681Z,83.29
2022-10-10T00:38:52.674Z,83.61
2022-10-10T00:39:52.664Z,83.33
2022-10-10T00:40:52.667Z,83.91
2022-10-10T00:41:52.653Z,83.95
2022-10-10T00:42:53.347Z,83.54
2022-10-10T00:43:52.617Z,83.64
2022-10-10T00:44:52.608Z,83.33
2022-10-10T00:45:52.596Z,83.13
2022-10-10T00:46:52.598Z,83.33
2022-10-10T00:47:52.573Z,83.85
2022-10-10T00:48:52.566Z,83.33
2022-10-10T00:49:52.553Z,83.85
2022-10-10T00:50:52.542Z,83.23
2022-10-10T00:51:52.548Z,83.54
2022-10-10T00:52:52.866Z,83.64
2022-10-10T00:53:52.511Z,83.75
2022-10-10T00:54:52.498Z,83.85
2022-10-10T00:55:52.492Z,83.68
2022-10-10T00:56:52.503Z,84.36
2022-10-10T00:57:52.470Z,84.36
2022-10-10T00:58:52.455Z,84.30
2022-10-10T00:59:52.446Z,83.95
2022-10-10T01:00:52.452Z,84.05
2022-10-10T01:01:52.434Z,83.44
2022-10-10T01:02:53.000Z,83.85
2022-10-10T01:03:52.403Z,83.85
2022-10-10T01:04:52.390Z,83.95
2022-10-10T01:05:52.390Z,83.85
2022-10-10T01:06:52.368Z,83.85
2022-10-10T01:07:52.360Z,84.05
2022-10-10T01:08:52.347Z,83.64
2022-10-10T01:09:52.340Z,83.75
2022-10-10T01:10:52.334Z,83.95
2022-10-10T01:11:52.317Z,83.54
2022-10-10T01:12:52.845Z,83.40
2022-10-10T01:13:52.301Z,83.19
2022-10-10T01:14:52.284Z,82.89
2022-10-10T01:15:52.312Z,82.68
2022-10-10T01:16:52.262Z,82.57
2022-10-10T01:17:52.252Z,82.99
2022-10-10T01:18:52.240Z,82.57
2022-10-10T01:19:52.232Z,82.57
2022-10-10T01:20:52.236Z,82.89
2022-10-10T01:21:52.207Z,82.82
2022-10-10T01:22:52.700Z,83.64
2022-10-10T01:23:52.272Z,83.50
2022-10-10T01:24:52.177Z,83.54
2022-10-10T01:25:52.179Z,83.33
2022-10-10T01:26:52.153Z,83.89
2022-10-10T01:27:52.143Z,83.37
2022-10-10T01:28:52.152Z,84.20
2022-10-10T01:29:52.123Z,84.47
2022-10-10T01:30:52.134Z,84.50
2022-10-10T01:31:52.101Z,84.50
2022-10-10T01:32:52.389Z,84.40
2022-10-10T01:33:52.079Z,84.05
2022-10-10T01:34:52.084Z,84.50
2022-10-10T01:35:52.059Z,84.50
2022-10-10T01:36:52.046Z,84.40
2022-10-10T01:37:52.039Z,84.47
2022-10-10T01:38:52.024Z,84.50
2022-10-10T01:39:52.027Z,84.40
2022-10-10T01:40:52.003Z,84.50
2022-10-10T01:41:51.993Z,84.30
2022-10-10T01:42:52.397Z,84.71
2022-10-10T01:43:51.971Z,84.30
2022-10-10T01:44:51.991Z,84.50
2022-10-10T01:45:51.953Z,84.81
2022-10-10T01:46:51.938Z,84.61
2022-10-10T01:47:51.928Z,84.61
2022-10-10T01:48:51.917Z,85.02
2022-10-10T01:49:51.931Z,84.50
2022-10-10T01:50:51.896Z,84.71
2022-10-10T01:51:51.885Z,85.16
2022-10-10T01:52:52.236Z,85.16
2022-10-10T01:53:51.866Z,85.16
2022-10-10T01:54:51.862Z,84.95
2022-10-10T01:55:51.855Z,85.26
2022-10-10T01:56:51.831Z,85.26
2022-10-10T01:57:51.825Z,85.12
2022-10-10T01:58:51.808Z,85.26
2022-10-10T01:59:51.808Z,85.16
2022-10-10T02:01:53.441Z,85.16
2022-10-10T02:02:53.869Z,85.57
2022-10-10T02:03:53.402Z,85.98
2022-10-10T02:04:53.406Z,85.88
2022-10-10T02:05:53.390Z,85.98
2022-10-10T02:06:53.370Z,85.68
2022-10-10T02:07:53.361Z,85.78
2022-10-10T02:08:53.378Z,85.88
2022-10-10T02:09:53.347Z,85.84
2022-10-10T02:10:53.323Z,85.53
2022-10-10T02:11:53.315Z,85.33
2022-10-10T02:12:53.753Z,85.02
2022-10-10T02:13:53.293Z,84.71
2022-10-10T02:14:53.288Z,84.50
2022-10-10T02:15:53.278Z,85.22
2022-10-10T02:16:53.257Z,84.81
2022-10-10T02:17:53.269Z,84.30
2022-10-10T02:18:53.238Z,84.20
2022-10-10T02:19:53.237Z,84.36
2022-10-10T02:20:53.221Z,84.61
2022-10-10T02:21:53.205Z,84.40
2022-10-10T02:22:53.770Z,83.99
2022-10-10T02:23:53.185Z,84.30
2022-10-10T02:24:53.194Z,84.40
2022-10-10T02:25:53.167Z,84.30
2022-10-10T02:26:53.149Z,83.99
2022-10-10T02:27:53.169Z,84.61
2022-10-10T02:28:53.127Z,84.61
2022-10-10T02:29:53.133Z,84.61
2022-10-10T02:30:53.109Z,85.02
2022-10-10T02:31:53.099Z,85.22
2022-10-10T02:32:53.471Z,85.16
2022-10-10T02:33:53.094Z,85.36
2022-10-10T02:34:53.078Z,85.16
2022-10-10T02:35:53.054Z,85.36
2022-10-10T02:36:53.042Z,85.47
2022-10-10T02:37:53.037Z,85.16
2022-10-10T02:38:53.065Z,85.47
2022-10-10T02:39:53.190Z,85.68
2022-10-10T02:40:53.002Z,86.02
2022-10-10T02:41:52.990Z,85.88
2022-10-10T02:42:53.512Z,85.68
2022-10-10T02:43:52.967Z,85.78
2022-10-10T02:44:52.970Z,85.78
2022-10-10T02:45:52.946Z,85.98
2022-10-10T02:46:52.938Z,85.68
2022-10-10T02:47:52.925Z,85.98
2022-10-10T02:48:52.911Z,85.53
2022-10-10T02:49:52.931Z,85.22
2022-10-10T02:50:52.890Z,85.43
2022-10-10T02:51:52.896Z,85.02
2022-10-10T02:52:53.253Z,84.30
2022-10-10T02:53:52.861Z,84.64
2022-10-10T02:54:52.858Z,84.30
2022-10-10T02:55:52.838Z,84.61
2022-10-10T02:56:52.826Z,84.30
2022-10-10T02:57:52.817Z,84.30
2022-10-10T02:58:52.807Z,84.40
2022-10-10T02:59:52.805Z,83.99
2022-10-10T03:00:52.829Z,83.68
2022-10-10T03:01:52.777Z,83.62
2022-10-10T03:02:53.176Z,84.75
2022-10-10T03:03:52.753Z,84.54
2022-10-10T03:04:52.748Z,84.89
2022-10-10T03:05:52.750Z,85.30
2022-10-10T03:06:52.722Z,85.51
2022-10-10T03:07:52.711Z,86.13
2022-10-10T03:08:52.695Z,85.92
2022-10-10T03:09:52.700Z,85.82
2022-10-10T03:10:52.706Z,85.92
2022-10-10T03:11:52.665Z,86.54
2022-10-10T03:12:52.983Z,85.96
2022-10-10T03:13:52.646Z,86.33
2022-10-10T03:14:52.645Z,86.02
2022-10-10T03:15:52.621Z,85.71
2022-10-10T03:16:52.611Z,86.27
2022-10-10T03:17:52.601Z,86.27
2022-10-10T03:18:52.588Z,86.27
2022-10-10T03:19:52.591Z,86.99
2022-10-10T03:20:52.566Z,87.30
2022-10-10T03:21:52.575Z,87.60
2022-10-10T03:22:52.880Z,87.60
2022-10-10T03:23:52.536Z,87.51
2022-10-10T03:24:52.537Z,87.46
2022-10-10T03:25:52.514Z,87.60
2022-10-10T03:26:52.501Z,87.51
2022-10-10T03:27:52.496Z,87.60
2022-10-10T03:28:52.482Z,87.30
2022-10-10T03:29:52.485Z,87.51
2022-10-10T03:30:52.460Z,86.99
2022-10-10T03:31:52.450Z,87.30
2022-10-10T03:32:52.994Z,87.51
2022-10-10T03:33:52.433Z,87.03
2022-10-10T03:34:52.424Z,87.34
2022-10-10T03:35:52.407Z,87.54
2022-10-10T03:36:52.394Z,87.75
2022-10-10T03:37:52.402Z,87.85
2022-10-10T03:38:52.370Z,87.85
2022-10-10T03:39:52.376Z,87.96
2022-10-10T03:40:52.349Z,87.96
2022-10-10T03:41:52.340Z,87.81
2022-10-10T03:42:53.069Z,87.75
2022-10-10T03:43:52.320Z,87.34
2022-10-10T03:44:52.320Z,87.60
2022-10-10T03:45:52.300Z,87.60
2022-10-10T03:46:52.287Z,87.30
2022-10-10T03:47:52.306Z,87.60
2022-10-10T03:48:52.269Z,87.54
2022-10-10T03:49:52.268Z,87.75
2022-10-10T03:50:52.246Z,87.65
2022-10-10T03:51:52.233Z,86.72
2022-10-10T03:52:52.581Z,87.85
2022-10-10T03:53:52.231Z,87.96
2022-10-10T03:54:52.227Z,87.75
2022-10-10T03:55:52.190Z,87.75
2022-10-10T03:56:52.178Z,88.06
2022-10-10T03:57:52.206Z,88.06
2022-10-10T03:58:52.172Z,87.85
2022-10-10T03:59:52.148Z,88.20
2022-10-10T04:00:52.139Z,88.17
2022-10-10T04:01:52.146Z,87.85
2022-10-10T04:02:52.422Z,88.17
2022-10-10T04:03:52.414Z,88.10
2022-10-10T04:04:52.100Z,88.10
2022-10-10T04:05:52.088Z,88.41
2022-10-10T04:06:52.069Z,88.37
2022-10-10T04:07:52.060Z,87.85
2022-10-10T04:08:52.050Z,88.37
2022-10-10T04:09:52.079Z,88.41
2022-10-10T04:10:52.025Z,88.37
2022-10-10T04:11:52.016Z,89.19
2022-10-10T04:12:52.250Z,88.31
2022-10-10T04:13:52.007Z,89.23
2022-10-10T04:14:52.013Z,89.09
2022-10-10T04:15:51.974Z,89.19
2022-10-10T04:16:51.965Z,88.06
2022-10-10T04:17:51.951Z,87.54
2022-10-10T04:18:51.949Z,88.37
2022-10-10T04:19:51.938Z,87.85
2022-10-10T04:20:51.918Z,87.54
2022-10-10T04:21:51.909Z,88.26
2022-10-10T04:22:52.279Z,88.26
2022-10-10T04:23:51.903Z,88.06
2022-10-10T04:24:51.891Z,87.65
2022-10-10T04:25:51.896Z,88.06
2022-10-10T04:26:51.856Z,88.17
2022-10-10T04:27:51.842Z,87.85
2022-10-10T04:28:51.850Z,88.06
2022-10-10T04:29:51.844Z,88.06
2022-10-10T04:30:51.809Z,87.99
2022-10-10T04:31:51.800Z,87.79
2022-10-10T04:32:52.232Z,88.06
2022-10-10T04:33:51.792Z,88.47
2022-10-10T04:34:51.768Z,89.23
2022-10-10T04:35:51.757Z,88.78
2022-10-10T04:36:51.744Z,88.82
2022-10-10T04:37:51.736Z,88.78
2022-10-10T04:38:51.733Z,88.26
2022-10-10T04:39:51.715Z,88.51
2022-10-10T04:40:51.702Z,89.13
2022-10-10T04:41:51.708Z,89.23
2022-10-10T04:42:52.031Z,88.92
2022-10-10T04:43:51.690Z,88.78
2022-10-10T04:44:51.658Z,88.89
2022-10-10T04:45:51.648Z,88.26
2022-10-10T04:46:51.636Z,88.68
2022-10-10T04:47:51.649Z,89.19
2022-10-10T04:48:51.628Z,88.31
2022-10-10T04:49:51.609Z,89.19
2022-10-10T04:50:51.595Z,89.23
2022-10-10T04:51:51.597Z,89.03
2022-10-10T04:52:51.970Z,88.92
2022-10-10T04:53:51.574Z,88.68
2022-10-10T04:54:51.551Z,88.82
2022-10-10T04:55:51.540Z,88.78
2022-10-10T04:56:51.529Z,88.99
2022-10-10T04:57:51.535Z,88.82
2022-10-10T04:58:51.519Z,89.23
2022-10-10T04:59:51.496Z,89.19
2022-10-10T05:00:51.488Z,88.51
2022-10-10T05:01:51.473Z,87.99
2022-10-10T05:02:51.747Z,88.10
2022-10-10T05:03:51.467Z,88.31
2022-10-10T05:04:51.445Z,88.26
2022-10-10T05:05:51.438Z,88.10
2022-10-10T05:06:51.426Z,88.51
2022-10-10T05:07:55.331Z,88.96
2022-10-10T05:08:51.414Z,89.17
2022-10-10T05:09:51.387Z,88.76
2022-10-10T05:10:51.379Z,89.48
2022-10-10T05:11:51.369Z,89.17
2022-10-10T05:12:51.740Z,88.76
2022-10-10T05:13:51.373Z,89.28
2022-10-10T05:14:51.335Z,88.56
2022-10-10T05:15:51.325Z,89.38
2022-10-10T05:16:51.318Z,88.76
2022-10-10T05:17:51.303Z,89.38
2022-10-10T05:18:51.306Z,89.07
2022-10-10T05:19:51.281Z,89.28
2022-10-10T05:20:51.272Z,89.17
2022-10-10T05:21:51.259Z,89.28
2022-10-10T05:22:51.594Z,89.17
2022-10-10T05:23:51.255Z,89.48
2022-10-10T05:24:51.228Z,89.48
2022-10-10T05:25:51.215Z,89.48
2022-10-10T05:26:51.208Z,89.28
2022-10-10T05:27:51.193Z,89.38
2022-10-10T05:28:51.195Z,89.48
2022-10-10T05:29:51.188Z,88.96
2022-10-10T05:30:51.178Z,89.48
2022-10-10T05:31:51.150Z,89.17
2022-10-10T05:32:51.348Z,89.38
2022-10-10T05:33:51.139Z,88.82
2022-10-10T05:34:51.118Z,88.82
2022-10-10T05:35:51.108Z,89.23
2022-10-10T05:36:51.100Z,89.44
2022-10-10T05:37:51.086Z,89.44
2022-10-10T05:38:51.095Z,89.09
2022-10-10T05:39:54.560Z,88.82
2022-10-10T05:40:51.075Z,89.40
2022-10-10T05:41:51.047Z,88.89
2022-10-10T05:42:51.275Z,88.26
2022-10-10T05:43:51.030Z,88.26
2022-10-10T05:44:51.014Z,87.65
2022-10-10T05:45:51.027Z,87.85
2022-10-10T05:46:50.990Z,87.71
2022-10-10T05:47:50.978Z,87.40
2022-10-10T05:48:50.994Z,87.51
2022-10-10T05:49:50.956Z,87.51
2022-10-10T05:50:50.946Z,87.71
2022-10-10T05:51:50.935Z,87.71
2022-10-10T05:52:51.138Z,87.60
2022-10-10T05:53:50.921Z,87.46
2022-10-10T05:54:50.903Z,87.26
2022-10-10T05:55:50.897Z,86.64
2022-10-10T05:56:50.882Z,86.64
2022-10-10T05:57:50.869Z,86.19
2022-10-10T05:58:50.869Z,85.78
2022-10-10T05:59:50.846Z,85.36
2022-10-10T06:00:50.836Z,85.36
2022-10-10T06:01:50.896Z,85.43
2022-10-10T06:02:51.175Z,84.71
2022-10-10T06:03:50.815Z,83.64
2022-10-10T06:04:50.794Z,83.37
2022-10-10T06:05:50.781Z,83.64
2022-10-10T06:06:50.773Z,82.68
2022-10-10T06:08:11.584Z,82.95
2022-10-10T06:08:51.751Z,82.33
2022-10-10T06:09:50.738Z,81.54
2022-10-10T06:10:50.729Z,80.47
2022-10-10T06:11:50.718Z,79.82
2022-10-10T06:12:51.099Z,77.84
2022-10-10T06:13:50.694Z,77.43
2022-10-10T06:14:50.686Z,76.03
2022-10-10T06:15:50.673Z,75.48
2022-10-10T06:16:50.664Z,74.52
2022-10-10T06:17:50.708Z,73.71
2022-10-10T06:18:50.644Z,73.50
2022-10-10T06:19:50.632Z,73.13
2022-10-10T06:20:50.633Z,73.54
2022-10-10T06:21:50.612Z,74.19
2022-10-10T06:22:50.868Z,74.69
2022-10-10T06:23:50.600Z,75.10
2022-10-10T06:24:53.008Z,75.24
2022-10-10T06:25:50.567Z,75.18
2022-10-10T06:26:50.564Z,75.28
2022-10-10T06:27:50.543Z,76.07
2022-10-10T06:28:50.550Z,77.40
2022-10-10T06:29:50.534Z,77.13
2022-10-10T06:30:50.515Z,78.05
2022-10-10T06:31:50.521Z,79.08
2022-10-10T06:32:53.605Z,79.01
2022-10-10T06:33:51.517Z,78.81
2022-10-10T06:34:50.469Z,79.32
2022-10-10T06:35:50.457Z,79.14
2022-10-10T06:36:50.449Z,78.05
2022-10-10T06:37:50.437Z,75.82
2022-10-10T06:38:50.463Z,74.18
2022-10-10T06:39:50.416Z,72.79
2022-10-10T06:40:50.405Z,70.68
2022-10-10T06:41:50.393Z,69.36
2022-10-10T06:42:50.695Z,67.43
2022-10-10T06:43:50.380Z,64.86
2022-10-10T06:44:50.364Z,63.95
2022-10-10T06:45:50.346Z,61.25
2022-10-10T06:46:50.345Z,60.89
2022-10-10T06:47:50.363Z,59.55
2022-10-10T06:48:50.327Z,58.48
2022-10-10T06:49:50.322Z,57.65
2022-10-10T06:50:50.295Z,56.30
2022-10-10T06:51:50.282Z,55.47
2022-10-10T06:52:50.596Z,54.46
2022-10-10T06:53:50.270Z,54.96
2022-10-10T06:54:50.250Z,54.43
2022-10-10T06:55:50.242Z,54.10
2022-10-10T06:56:50.228Z,54.10
2022-10-10T06:57:50.216Z,53.38
2022-10-10T06:58:50.258Z,53.00
2022-10-10T06:59:50.194Z,52.56
2022-10-10T07:00:50.186Z,53.02
2022-10-10T07:01:50.208Z,53.45
2022-10-10T07:02:50.409Z,54.18
2022-10-10T07:03:50.163Z,54.58
2022-10-10T07:04:50.142Z,55.11
2022-10-10T07:05:50.145Z,55.44
2022-10-10T07:06:50.122Z,55.52
2022-10-10T07:07:50.107Z,55.11
2022-10-10T07:08:50.111Z,55.35
2022-10-10T07:09:50.096Z,55.88
2022-10-10T07:10:50.080Z,56.56
2022-10-10T07:11:50.066Z,56.71
2022-10-10T07:12:50.057Z,56.79
2022-10-10T07:13:50.061Z,55.98
2022-10-10T07:14:50.034Z,56.61
2022-10-10T07:15:50.023Z,56.74
2022-10-10T07:16:50.017Z,56.38
2022-10-10T07:17:54.226Z,55.37
2022-10-10T07:18:50.008Z,56.95
2022-10-10T07:19:49.980Z,57.07
2022-10-10T07:20:49.971Z,58.01
2022-10-10T07:21:49.977Z,58.88
2022-10-10T07:22:50.238Z,60.10
2022-10-10T07:23:49.949Z,60.28
2022-10-10T07:24:49.943Z,61.22
2022-10-10T07:25:49.919Z,63.45
2022-10-10T07:26:49.904Z,64.84
2022-10-10T07:27:49.946Z,65.58
2022-10-10T07:28:49.904Z,65.99
2022-10-10T07:29:49.869Z,66.09
2022-10-10T07:30:49.859Z,67.11
2022-10-10T07:31:49.848Z,66.91
2022-10-10T07:32:50.185Z,66.42
2022-10-10T07:33:50.815Z,67.38
2022-10-10T07:34:49.816Z,67.68
2022-10-10T07:35:49.804Z,68.26
2022-10-10T07:36:49.796Z,68.57
2022-10-10T07:37:49.803Z,67.11
2022-10-10T07:38:49.783Z,66.80
2022-10-10T07:39:49.762Z,66.70
2022-10-10T07:40:49.753Z,66.44
2022-10-10T07:41:49.740Z,65.36
2022-10-10T07:42:50.024Z,63.93
2022-10-10T07:43:49.747Z,63.90
2022-10-10T07:44:49.708Z,64.20
2022-10-10T07:45:49.744Z,64.72
2022-10-10T07:46:49.695Z,64.23
2022-10-10T07:47:49.941Z,64.17
2022-10-10T07:48:49.707Z,64.81
2022-10-10T07:49:49.651Z,66.91
2022-10-10T07:50:49.641Z,67.27
2022-10-10T07:51:49.631Z,68.60
2022-10-10T07:52:49.619Z,68.16
2022-10-10T07:53:49.634Z,68.37
2022-10-10T07:54:49.599Z,67.85
2022-10-10T07:55:49.584Z,68.26
2022-10-10T07:56:49.575Z,67.32
2022-10-10T07:57:53.171Z,66.80
2022-10-10T07:58:49.565Z,66.60
2022-10-10T07:59:49.545Z,67.04
2022-10-10T08:00:49.532Z,68.09
2022-10-10T08:01:57.162Z,69.24
2022-10-10T08:02:49.508Z,70.00
2022-10-10T08:03:49.508Z,70.20
2022-10-10T08:04:49.490Z,70.20
2022-10-10T08:05:49.474Z,70.37
2022-10-10T08:06:49.505Z,69.73
2022-10-10T08:07:49.794Z,68.70
2022-10-10T08:08:51.672Z,69.32
2022-10-10T08:09:49.447Z,68.47
2022-10-10T08:10:49.423Z,68.33
2022-10-10T08:11:49.409Z,68.20
2022-10-10T08:12:49.421Z,66.91
2022-10-10T08:13:49.399Z,64.18
2022-10-10T08:14:49.379Z,63.17
2022-10-10T08:15:49.364Z,60.58
2022-10-10T08:16:49.356Z,59.84
2022-10-10T08:17:49.659Z,59.20
2022-10-10T08:18:49.343Z,58.64
2022-10-10T08:19:49.321Z,57.20
2022-10-10T08:20:49.313Z,57.67
2022-10-10T08:21:49.305Z,57.87
2022-10-10T08:22:49.637Z,56.26
2022-10-10T08:23:49.297Z,56.71
2022-10-10T08:24:49.310Z,57.73
2022-10-10T08:25:49.274Z,57.73
2022-10-10T08:26:49.280Z,57.40
2022-10-10T08:27:49.234Z,56.66
2022-10-10T08:28:49.343Z,56.66
2022-10-10T08:29:49.212Z,56.69
2022-10-10T08:30:49.219Z,57.29
2022-10-10T08:31:49.194Z,57.80
2022-10-10T08:32:49.542Z,57.40
2022-10-10T08:33:49.180Z,56.69
2022-10-10T08:34:49.163Z,56.41
2022-10-10T08:35:49.148Z,57.42
2022-10-10T08:36:49.137Z,57.75
2022-10-10T08:37:49.129Z,58.39
2022-10-10T08:38:49.138Z,57.96
2022-10-10T08:39:49.112Z,58.13
2022-10-10T08:40:49.097Z,57.50
2022-10-10T08:41:49.151Z,56.38
2022-10-10T08:42:52.686Z,56.66
2022-10-10T08:43:49.073Z,56.66
2022-10-10T08:44:49.054Z,56.66
2022-10-10T08:45:49.040Z,56.13
2022-10-10T08:46:49.031Z,56.10
2022-10-10T08:47:49.018Z,55.49
2022-10-10T08:48:49.021Z,54.96
2022-10-10T08:49:49.019Z,55.16
2022-10-10T08:50:48.988Z,55.57
2022-10-10T08:51:48.978Z,54.43
2022-10-10T08:52:49.361Z,53.90
2022-10-10T08:53:48.974Z,53.47
2022-10-10T08:54:48.946Z,52.87
2022-10-10T08:55:48.933Z,52.92
2022-10-10T08:56:48.923Z,51.79
2022-10-10T08:57:48.930Z,52.06
2022-10-10T08:58:48.915Z,52.67
2022-10-10T08:59:48.980Z,51.03
2022-10-10T09:00:48.944Z,50.38
2022-10-10T09:02:18.328Z,49.77
2022-10-10T09:02:53.949Z,49.45
2022-10-10T09:03:48.858Z,50.26
2022-10-10T09:04:48.836Z,49.07
2022-10-10T09:05:48.838Z,49.05
2022-10-10T09:06:48.826Z,49.25
2022-10-10T09:07:48.801Z,48.85
2022-10-10T09:08:48.800Z,49.05
2022-10-10T09:09:48.873Z,49.27
2022-10-10T09:10:48.769Z,49.77
2022-10-10T09:11:48.762Z,50.20
2022-10-10T09:12:48.755Z,49.88
2022-10-10T09:13:48.872Z,50.08
2022-10-10T09:14:48.725Z,49.85
2022-10-10T09:15:48.716Z,49.01
2022-10-10T09:16:48.706Z,48.90
2022-10-10T09:17:48.697Z,49.08
2022-10-10T09:18:48.699Z,48.08
2022-10-10T09:19:48.789Z,47.96
2022-10-10T09:20:48.662Z,48.01
2022-10-10T09:21:48.652Z,46.06
2022-10-10T09:22:48.641Z,46.14
2022-10-10T09:23:48.640Z,45.31
2022-10-10T09:24:48.619Z,44.49
2022-10-10T09:25:48.607Z,43.77
2022-10-10T09:26:48.596Z,44.47
2022-10-10T09:27:48.596Z,44.17
2022-10-10T09:28:48.651Z,43.23
2022-10-10T09:29:48.688Z,44.05
2022-10-10T09:30:48.554Z,43.65
2022-10-10T09:31:48.544Z,43.73
2022-10-10T09:32:48.539Z,44.03
2022-10-10T09:33:48.539Z,44.21
2022-10-10T09:34:48.511Z,43.91
2022-10-10T09:35:48.501Z,43.31
2022-10-10T09:36:48.490Z,42.67
2022-10-10T09:37:48.482Z,41.88
2022-10-10T09:38:48.483Z,41.67
2022-10-10T09:39:48.463Z,41.88
2022-10-10T09:40:48.449Z,41.97
2022-10-10T09:41:48.441Z,41.25
2022-10-10T09:42:48.429Z,41.36
2022-10-10T09:43:48.436Z,41.38
2022-10-10T09:44:48.409Z,41.36
2022-10-10T09:45:48.417Z,41.03
2022-10-10T09:46:48.387Z,41.33
2022-10-10T09:47:48.381Z,40.42
2022-10-10T09:48:48.377Z,40.70
2022-10-10T09:49:48.361Z,40.78
2022-10-10T09:50:48.347Z,40.10
2022-10-10T09:51:48.337Z,40.12
2022-10-10T09:52:48.326Z,40.34
2022-10-10T09:53:48.334Z,40.34
2022-10-10T09:54:48.305Z,41.46
2022-10-10T09:55:48.327Z,40.95
2022-10-10T09:56:48.284Z,41.66
2022-10-10T09:57:48.275Z,41.14
2022-10-10T09:58:48.276Z,41.28
2022-10-10T09:59:48.254Z,42.91
2022-10-10T10:00:48.283Z,42.77
2022-10-10T10:01:48.289Z,43.91
2022-10-10T10:02:48.224Z,44.76
2022-10-10T10:03:48.224Z,46.42
2022-10-10T10:04:48.202Z,47.07
2022-10-10T10:05:48.192Z,47.80
2022-10-10T10:06:48.179Z,49.25
2022-10-10T10:07:48.171Z,50.51
2022-10-10T10:08:49.981Z,50.93
2022-10-10T10:09:48.150Z,51.21
2022-10-10T10:10:48.138Z,51.56
2022-10-10T10:11:48.134Z,51.99
2022-10-10T10:12:48.114Z,52.39
2022-10-10T10:13:48.116Z,52.49
2022-10-10T10:14:48.093Z,53.22
2022-10-10T10:15:48.086Z,52.89
2022-10-10T10:16:48.072Z,53.09
2022-10-10T10:17:48.203Z,53.00
2022-10-10T10:18:48.053Z,53.60
2022-10-10T10:19:48.041Z,52.69
2022-10-10T10:20:48.028Z,53.63
2022-10-10T10:21:48.017Z,53.32
2022-10-10T10:22:48.054Z,53.32
2022-10-10T10:23:48.056Z,54.16
2022-10-10T10:24:47.985Z,54.36
2022-10-10T10:25:47.975Z,54.16
2022-10-10T10:26:47.962Z,53.96
2022-10-10T10:27:47.952Z,54.76
2022-10-10T10:28:48.016Z,54.36
2022-10-10T10:29:47.932Z,54.96
2022-10-10T10:30:47.920Z,54.86
2022-10-10T10:31:47.908Z,53.96
2022-10-10T10:32:47.907Z,54.89
2022-10-10T10:33:48.004Z,55.19
2022-10-10T10:34:47.871Z,56.02
2022-10-10T10:35:47.868Z,55.44
2022-10-10T10:36:47.859Z,56.05
2022-10-10T10:37:47.858Z,56.05
2022-10-10T10:38:47.830Z,55.94
2022-10-10T10:39:47.821Z,56.25
2022-10-10T10:40:47.808Z,57.46
2022-10-10T10:41:47.800Z,58.17
2022-10-10T10:42:47.808Z,57.46
2022-10-10T10:43:47.779Z,56.15
2022-10-10T10:44:47.774Z,56.78
2022-10-10T10:45:47.756Z,57.39
2022-10-10T10:46:47.744Z,56.78
2022-10-10T10:47:47.747Z,57.72
2022-10-10T10:48:47.733Z,57.82
2022-10-10T10:49:47.731Z,58.20
2022-10-10T10:50:47.700Z,57.29
2022-10-10T10:51:47.691Z,57.69
2022-10-10T10:52:47.688Z,56.98
2022-10-10T10:53:47.670Z,57.59
2022-10-10T10:54:47.665Z,56.98
2022-10-10T10:55:47.649Z,57.49
2022-10-10T10:56:47.637Z,57.59
2022-10-10T10:58:05.171Z,58.09
2022-10-10T10:59:15.800Z,57.49
2022-10-10T11:00:21.646Z,57.29
2022-10-10T11:01:23.405Z,57.79
2022-10-10T11:01:57.798Z,57.49
2022-10-10T11:02:59.646Z,57.59
2022-10-10T11:05:16.629Z,58.30
2022-10-10T11:05:18.786Z,57.39
2022-10-10T11:05:48.706Z,57.59
2022-10-10T11:06:59.975Z,58.23
2022-10-10T11:07:48.625Z,58.12
2022-10-10T11:08:47.520Z,58.43
2022-10-10T11:09:50.960Z,58.33
2022-10-10T11:10:47.483Z,58.33
2022-10-10T11:11:47.473Z,58.23
2022-10-10T11:12:47.472Z,58.63
2022-10-10T11:13:47.464Z,58.83
2022-10-10T11:14:47.446Z,58.63
2022-10-10T11:16:05.505Z,58.83
2022-10-10T11:16:49.353Z,58.43
2022-10-10T11:17:47.423Z,59.03
2022-10-10T11:18:47.411Z,59.03
2022-10-10T11:19:47.384Z,58.73
2022-10-10T11:20:47.393Z,58.73
2022-10-10T11:21:47.386Z,59.21
2022-10-10T11:22:47.351Z,58.40
2022-10-10T11:23:47.356Z,58.80
2022-10-10T11:24:47.344Z,58.91
2022-10-10T11:25:47.317Z,59.11
2022-10-10T11:26:47.309Z,58.63
2022-10-10T11:27:47.297Z,59.51
2022-10-10T11:28:49.577Z,59.81
2022-10-10T11:29:47.275Z,59.94
2022-10-10T11:30:47.261Z,59.91
2022-10-10T11:31:47.252Z,60.02
2022-10-10T11:32:47.240Z,59.81
2022-10-10T11:33:47.242Z,59.81
2022-10-10T11:34:47.217Z,59.81
2022-10-10T11:35:47.214Z,59.00
2022-10-10T11:36:47.197Z,58.98
2022-10-10T11:37:47.208Z,59.48
2022-10-10T11:38:47.182Z,58.78
2022-10-10T11:39:47.166Z,60.09
2022-10-10T11:40:47.153Z,59.99
2022-10-10T11:41:47.143Z,58.98
2022-10-10T11:42:47.131Z,59.58
2022-10-10T11:43:47.131Z,59.08
2022-10-10T11:44:47.107Z,59.78
2022-10-10T11:45:49.765Z,59.69
2022-10-10T11:46:48.085Z,59.08
2022-10-10T11:47:47.077Z,58.78
2022-10-10T11:48:47.074Z,58.65
2022-10-10T11:49:47.055Z,58.58
2022-10-10T11:50:47.043Z,58.78
2022-10-10T11:51:47.033Z,58.87
2022-10-10T11:52:47.020Z,58.78
2022-10-10T11:53:47.036Z,58.98
2022-10-10T11:54:47.006Z,58.78
2022-10-10T11:55:46.988Z,58.67
2022-10-10T11:56:46.978Z,58.67
2022-10-10T11:57:46.968Z,58.98
2022-10-10T11:58:46.963Z,58.98
2022-10-10T11:59:46.946Z,58.85
2022-10-10T12:00:46.931Z,58.78
2022-10-10T12:01:47.003Z,59.28
2022-10-10T12:02:46.909Z,59.48
2022-10-10T12:03:46.910Z,59.69
2022-10-10T12:04:46.886Z,59.89
2022-10-10T12:05:46.880Z,60.19
2022-10-10T12:06:46.866Z,59.78
2022-10-10T12:07:46.858Z,59.08
2022-10-10T12:08:46.851Z,59.78
2022-10-10T12:09:46.852Z,59.99
2022-10-10T12:10:46.821Z,60.29
2022-10-10T12:11:46.812Z,60.29
2022-10-10T12:12:46.810Z,60.19
2022-10-10T12:13:46.790Z,60.09
2022-10-10T12:14:46.783Z,60.29
2022-10-10T12:15:49.969Z,60.39
2022-10-10T12:16:46.758Z,60.19
2022-10-10T12:17:46.758Z,60.80
2022-10-10T12:18:46.733Z,60.19
2022-10-10T12:19:46.728Z,60.19
2022-10-10T12:20:46.735Z,60.29
2022-10-10T12:21:46.703Z,61.00
2022-10-10T12:22:46.704Z,60.69
2022-10-10T12:23:46.679Z,60.60
2022-10-10T12:24:50.169Z,60.80
2022-10-10T12:25:46.691Z,61.10
2022-10-10T12:26:46.646Z,60.49
2022-10-10T12:27:46.649Z,60.60
2022-10-10T12:28:46.729Z,61.07
2022-10-10T12:29:50.718Z,60.26
2022-10-10T12:30:46.607Z,60.97
2022-10-10T12:31:46.590Z,60.77
2022-10-10T12:32:46.591Z,60.77
2022-10-10T12:33:46.583Z,61.07
2022-10-10T12:34:46.607Z,60.77
2022-10-10T12:35:46.548Z,60.57
2022-10-10T12:36:46.538Z,60.66
2022-10-10T12:37:46.561Z,60.46
2022-10-10T12:38:46.512Z,60.36
2022-10-10T12:39:46.503Z,60.57
2022-10-10T12:40:46.490Z,60.24
2022-10-10T12:41:47.678Z,60.06
2022-10-10T12:42:46.468Z,60.77
2022-10-10T12:43:46.467Z,60.77
2022-10-10T12:44:46.447Z,60.77
2022-10-10T12:45:46.442Z,60.46
2022-10-10T12:46:46.425Z,60.57
2022-10-10T12:48:04.341Z,60.36
2022-10-10T12:48:47.410Z,60.36
2022-10-10T12:49:46.392Z,60.36
2022-10-10T12:50:46.381Z,60.57
2022-10-10T12:51:46.377Z,60.77
2022-10-10T12:52:46.356Z,60.57
2022-10-10T12:53:46.364Z,60.87